Wells, New York
Current Conditions -  °F | °C
As of 12:55 PM on Friday 28 Nov 2014 (Local Time) from KNY0 Reporting Station
Overcast Overcast  
Wind Chill: 12°   Ceiling: 2000
Heat Index: 24°   Visibility: 10mi
Dew Point: 18°   Wind: 13mph
Humidity: 79%   Direction: 270°W
Pressure: 30.1"   Gusts: 18mph
Location:  43.39°N, 74.28°W
Report Text: KNY0 281755Z AUTO 27011G16KT 10SM BKN020 OVC028 M04/M08 A3010 RMK AO2 T10451077 11034 21065
Loading
Personal Weather Stations






























Interactive Weather Map New forecast layout! Learn more

10-Day Weather Forecast

Advertisements
Track Severe Weather on mobile